sensor_id;sensor_type;location;lat;lon;timestamp;temperature;humidity
46400;DHT22;32104;50.838;4.388;2022-11-18T00:02:22;11.00;99.90
46400;DHT22;32104;50.838;4.388;2022-11-18T00:04:47;11.10;99.90
46400;DHT22;32104;50.838;4.388;2022-11-18T00:07:13;11.20;99.90
46400;DHT22;32104;50.838;4.388;2022-11-18T00:09:39;11.30;99.90
46400;DHT22;32104;50.838;4.388;2022-11-18T00:12:04;11.30;99.90
46400;DHT22;32104;50.838;4.388;2022-11-18T00:14:48;11.20;99.90
46400;DHT22;32104;50.838;4.388;2022-11-18T00:17:15;11.20;99.90
46400;DHT22;32104;50.838;4.388;2022-11-18T00:19:42;11.10;99.90
46400;DHT22;32104;50.838;4.388;2022-11-18T00:22:10;11.10;99.90
46400;DHT22;32104;50.838;4.388;2022-11-18T00:24:35;11.20;99.90
46400;DHT22;32104;50.838;4.388;2022-11-18T00:27:01;11.20;99.90
46400;DHT22;32104;50.838;4.388;2022-11-18T00:29:27;11.20;99.90
46400;DHT22;32104;50.838;4.388;2022-11-18T00:31:55;11.10;99.90
46400;DHT22;32104;50.838;4.388;2022-11-18T00:34:22;11.10;99.90
46400;DHT22;32104;50.838;4.388;2022-11-18T00:36:47;11.20;99.90
46400;DHT22;32104;50.838;4.388;2022-11-18T00:39:14;11.30;99.90
46400;DHT22;32104;50.838;4.388;2022-11-18T00:41:40;11.20;99.90
46400;DHT22;32104;50.838;4.388;2022-11-18T00:44:24;11.10;99.90
46400;DHT22;32104;50.838;4.388;2022-11-18T00:46:50;11.10;99.90
46400;DHT22;32104;50.838;4.388;2022-11-18T00:49:16;11.10;99.90
46400;DHT22;32104;50.838;4.388;2022-11-18T00:51:41;11.20;99.90
46400;DHT22;32104;50.838;4.388;2022-11-18T00:54:07;11.20;99.90
46400;DHT22;32104;50.838;4.388;2022-11-18T00:56:32;11.20;99.90
46400;DHT22;32104;50.838;4.388;2022-11-18T00:58:58;11.20;99.90
46400;DHT22;32104;50.838;4.388;2022-11-18T01:01:24;11.20;99.90
46400;DHT22;32104;50.838;4.388;2022-11-18T01:03:49;11.20;99.90
46400;DHT22;32104;50.838;4.388;2022-11-18T01:06:15;11.10;99.90
46400;DHT22;32104;50.838;4.388;2022-11-18T01:08:40;11.20;99.90
46400;DHT22;32104;50.838;4.388;2022-11-18T01:11:06;11.30;99.90
46400;DHT22;32104;50.838;4.388;2022-11-18T01:13:51;11.20;99.90
46400;DHT22;32104;50.838;4.388;2022-11-18T01:16:18;11.20;99.90
46400;DHT22;32104;50.838;4.388;2022-11-18T01:18:43;11.20;99.90
46400;DHT22;32104;50.838;4.388;2022-11-18T01:21:09;11.20;99.90
46400;DHT22;32104;50.838;4.388;2022-11-18T01:23:34;11.10;99.90
46400;DHT22;32104;50.838;4.388;2022-11-18T01:26:02;11.10;99.90
46400;DHT22;32104;50.838;4.388;2022-11-18T01:28:29;11.00;99.90
46400;DHT22;32104;50.838;4.388;2022-11-18T01:30:58;11.00;99.90
46400;DHT22;32104;50.838;4.388;2022-11-18T01:33:27;11.00;99.90
46400;DHT22;32104;50.838;4.388;2022-11-18T01:35:53;10.90;99.90
46400;DHT22;32104;50.838;4.388;2022-11-18T01:38:18;10.80;99.90
46400;DHT22;32104;50.838;4.388;2022-11-18T01:40:44;10.80;99.90
46400;DHT22;32104;50.838;4.388;2022-11-18T01:43:13;10.80;99.90
46400;DHT22;32104;50.838;4.388;2022-11-18T01:45:40;10.80;99.90
46400;DHT22;32104;50.838;4.388;2022-11-18T01:48:08;10.80;99.90
46400;DHT22;32104;50.838;4.388;2022-11-18T01:50:36;10.80;99.90
46400;DHT22;32104;50.838;4.388;2022-11-18T01:53:04;10.70;99.90
46400;DHT22;32104;50.838;4.388;2022-11-18T01:55:32;10.60;99.90
46400;DHT22;32104;50.838;4.388;2022-11-18T01:58:06;10.60;99.90
46400;DHT22;32104;50.838;4.388;2022-11-18T02:00:33;10.50;99.90
46400;DHT22;32104;50.838;4.388;2022-11-18T02:02:59;10.50;99.90
46400;DHT22;32104;50.838;4.388;2022-11-18T02:05:26;10.50;99.90
46400;DHT22;32104;50.838;4.388;2022-11-18T02:07:52;10.50;99.90
46400;DHT22;32104;50.838;4.388;2022-11-18T02:10:19;10.50;99.90
46400;DHT22;32104;50.838;4.388;2022-11-18T02:12:45;10.70;99.90
46400;DHT22;32104;50.838;4.388;2022-11-18T02:15:10;10.70;99.90
46400;DHT22;32104;50.838;4.388;2022-11-18T02:20:36;10.60;99.90
46400;DHT22;32104;50.838;4.388;2022-11-18T02:28:14;10.40;99.90
46400;DHT22;32104;50.838;4.388;2022-11-18T02:30:49;10.40;99.90
46400;DHT22;32104;50.838;4.388;2022-11-18T02:33:21;10.50;99.90
46400;DHT22;32104;50.838;4.388;2022-11-18T02:36:21;10.60;99.90
46400;DHT22;32104;50.838;4.388;2022-11-18T02:38:44;10.50;99.90
46400;DHT22;32104;50.838;4.388;2022-11-18T02:41:19;10.50;99.90
46400;DHT22;32104;50.838;4.388;2022-11-18T02:43:46;10.50;99.90
46400;DHT22;32104;50.838;4.388;2022-11-18T02:46:16;10.50;99.90
46400;DHT22;32104;50.838;4.388;2022-11-18T02:48:44;10.30;99.90
46400;DHT22;32104;50.838;4.388;2022-11-18T02:51:11;10.20;99.90
46400;DHT22;32104;50.838;4.388;2022-11-18T02:53:38;10.30;99.90
46400;DHT22;32104;50.838;4.388;2022-11-18T02:56:04;10.30;99.90
46400;DHT22;32104;50.838;4.388;2022-11-18T02:58:31;10.30;99.90
46400;DHT22;32104;50.838;4.388;2022-11-18T03:01:00;10.40;99.90
46400;DHT22;32104;50.838;4.388;2022-11-18T03:03:27;10.50;99.90
46400;DHT22;32104;50.838;4.388;2022-11-18T03:09:10;10.40;99.90
46400;DHT22;32104;50.838;4.388;2022-11-18T03:16:44;10.10;99.90
46400;DHT22;32104;50.838;4.388;2022-11-18T03:22:01;10.20;99.90
46400;DHT22;32104;50.838;4.388;2022-11-18T03:24:30;10.10;99.90
46400;DHT22;32104;50.838;4.388;2022-11-18T03:27:06;10.10;99.90
46400;DHT22;32104;50.838;4.388;2022-11-18T03:29:37;10.20;99.90
46400;DHT22;32104;50.838;4.388;2022-11-18T03:32:14;10.20;99.90
46400;DHT22;32104;50.838;4.388;2022-11-18T03:34:46;10.10;99.90
46400;DHT22;32104;50.838;4.388;2022-11-18T03:37:13;10.10;99.90
46400;DHT22;32104;50.838;4.388;2022-11-18T03:39:44;10.00;99.90
46400;DHT22;32104;50.838;4.388;2022-11-18T03:45:08;10.00;99.90
46400;DHT22;32104;50.838;4.388;2022-11-18T03:47:38;10.00;99.90
46400;DHT22;32104;50.838;4.388;2022-11-18T03:50:12;10.00;99.90
46400;DHT22;32104;50.838;4.388;2022-11-18T03:52:40;10.20;99.90
46400;DHT22;32104;50.838;4.388;2022-11-18T03:57:59;10.00;99.90
46400;DHT22;32104;50.838;4.388;2022-11-18T04:00:28;9.90;99.90
46400;DHT22;32104;50.838;4.388;2022-11-18T04:02:57;9.90;99.90
46400;DHT22;32104;50.838;4.388;2022-11-18T04:05:22;9.90;99.90
46400;DHT22;32104;50.838;4.388;2022-11-18T04:10:17;9.80;99.90
46400;DHT22;32104;50.838;4.388;2022-11-18T04:12:45;9.80;99.90
46400;DHT22;32104;50.838;4.388;2022-11-18T04:15:11;9.80;99.90
46400;DHT22;32104;50.838;4.388;2022-11-18T04:17:37;9.80;99.90
46400;DHT22;32104;50.838;4.388;2022-11-18T04:20:05;9.90;99.90
46400;DHT22;32104;50.838;4.388;2022-11-18T04:22:30;9.90;99.90
46400;DHT22;32104;50.838;4.388;2022-11-18T04:24:56;9.90;99.90
46400;DHT22;32104;50.838;4.388;2022-11-18T04:27:22;9.80;99.90
46400;DHT22;32104;50.838;4.388;2022-11-18T04:29:47;9.80;99.90
46400;DHT22;32104;50.838;4.388;2022-11-18T04:32:13;9.80;99.90
46400;DHT22;32104;50.838;4.388;2022-11-18T04:34:38;9.90;99.90
46400;DHT22;32104;50.838;4.388;2022-11-18T04:37:05;10.00;99.90
46400;DHT22;32104;50.838;4.388;2022-11-18T04:39:30;9.80;99.90
46400;DHT22;32104;50.838;4.388;2022-11-18T04:41:56;9.80;99.90
46400;DHT22;32104;50.838;4.388;2022-11-18T04:46:47;9.70;99.90
46400;DHT22;32104;50.838;4.388;2022-11-18T04:49:14;9.70;99.90
46400;DHT22;32104;50.838;4.388;2022-11-18T04:51:40;9.70;99.90
46400;DHT22;32104;50.838;4.388;2022-11-18T04:54:06;9.80;99.90
46400;DHT22;32104;50.838;4.388;2022-11-18T04:56:32;9.70;99.90
46400;DHT22;32104;50.838;4.388;2022-11-18T04:58:58;9.80;99.90
46400;DHT22;32104;50.838;4.388;2022-11-18T05:01:25;9.80;99.90
46400;DHT22;32104;50.838;4.388;2022-11-18T05:03:50;9.70;99.90
46400;DHT22;32104;50.838;4.388;2022-11-18T05:06:16;9.70;99.90
46400;DHT22;32104;50.838;4.388;2022-11-18T05:08:42;9.70;99.90
46400;DHT22;32104;50.838;4.388;2022-11-18T05:11:07;9.70;99.90
46400;DHT22;32104;50.838;4.388;2022-11-18T05:13:51;9.60;99.90
46400;DHT22;32104;50.838;4.388;2022-11-18T05:16:17;9.70;99.90
46400;DHT22;32104;50.838;4.388;2022-11-18T05:18:43;9.70;99.90
46400;DHT22;32104;50.838;4.388;2022-11-18T05:21:08;9.70;99.90
46400;DHT22;32104;50.838;4.388;2022-11-18T05:23:34;9.50;99.90
46400;DHT22;32104;50.838;4.388;2022-11-18T05:26:03;9.50;99.90
46400;DHT22;32104;50.838;4.388;2022-11-18T05:28:29;9.50;99.90
46400;DHT22;32104;50.838;4.388;2022-11-18T05:30:54;9.50;99.90
46400;DHT22;32104;50.838;4.388;2022-11-18T05:33:20;9.50;99.90
46400;DHT22;32104;50.838;4.388;2022-11-18T05:35:46;9.50;99.90
46400;DHT22;32104;50.838;4.388;2022-11-18T05:38:11;9.60;99.90
46400;DHT22;32104;50.838;4.388;2022-11-18T05:40:37;9.60;99.90
46400;DHT22;32104;50.838;4.388;2022-11-18T05:43:02;9.50;99.90
46400;DHT22;32104;50.838;4.388;2022-11-18T05:45:39;9.60;99.90
46400;DHT22;32104;50.838;4.388;2022-11-18T05:48:05;9.60;99.90
46400;DHT22;32104;50.838;4.388;2022-11-18T05:50:31;9.40;99.90
46400;DHT22;32104;50.838;4.388;2022-11-18T05:52:57;9.40;99.90
46400;DHT22;32104;50.838;4.388;2022-11-18T05:55:28;9.60;99.90
46400;DHT22;32104;50.838;4.388;2022-11-18T05:57:54;9.50;99.90
46400;DHT22;32104;50.838;4.388;2022-11-18T06:00:20;9.70;99.90
46400;DHT22;32104;50.838;4.388;2022-11-18T06:02:46;9.60;99.90
46400;DHT22;32104;50.838;4.388;2022-11-18T06:05:14;9.60;99.90
46400;DHT22;32104;50.838;4.388;2022-11-18T06:07:41;9.40;99.90
46400;DHT22;32104;50.838;4.388;2022-11-18T06:10:08;9.40;99.90
46400;DHT22;32104;50.838;4.388;2022-11-18T06:12:38;9.40;99.90
46400;DHT22;32104;50.838;4.388;2022-11-18T06:15:09;9.50;99.90
46400;DHT22;32104;50.838;4.388;2022-11-18T06:17:39;9.40;99.90
46400;DHT22;32104;50.838;4.388;2022-11-18T06:20:06;9.30;99.90
46400;DHT22;32104;50.838;4.388;2022-11-18T06:22:33;9.20;99.90
46400;DHT22;32104;50.838;4.388;2022-11-18T06:24:59;9.40;99.90
46400;DHT22;32104;50.838;4.388;2022-11-18T06:27:25;9.40;99.90
46400;DHT22;32104;50.838;4.388;2022-11-18T06:29:52;9.40;99.90
46400;DHT22;32104;50.838;4.388;2022-11-18T06:32:54;9.50;99.90
46400;DHT22;32104;50.838;4.388;2022-11-18T06:35:31;9.40;99.90
46400;DHT22;32104;50.838;4.388;2022-11-18T06:37:58;9.30;99.90
46400;DHT22;32104;50.838;4.388;2022-11-18T06:40:27;9.30;99.90
46400;DHT22;32104;50.838;4.388;2022-11-18T06:42:55;9.40;99.90
46400;DHT22;32104;50.838;4.388;2022-11-18T06:45:39;9.40;99.90
46400;DHT22;32104;50.838;4.388;2022-11-18T06:48:24;9.50;99.90
46400;DHT22;32104;50.838;4.388;2022-11-18T06:50:50;9.30;99.90
46400;DHT22;32104;50.838;4.388;2022-11-18T06:53:16;9.30;99.90
46400;DHT22;32104;50.838;4.388;2022-11-18T06:55:42;9.40;99.90
46400;DHT22;32104;50.838;4.388;2022-11-18T06:58:07;9.40;99.90
46400;DHT22;32104;50.838;4.388;2022-11-18T07:00:33;9.50;99.90
46400;DHT22;32104;50.838;4.388;2022-11-18T07:03:00;9.60;99.90
46400;DHT22;32104;50.838;4.388;2022-11-18T07:05:26;9.50;99.90
46400;DHT22;32104;50.838;4.388;2022-11-18T07:07:51;9.50;99.90
46400;DHT22;32104;50.838;4.388;2022-11-18T07:10:17;9.60;99.90
46400;DHT22;32104;50.838;4.388;2022-11-18T07:12:42;9.70;99.90
46400;DHT22;32104;50.838;4.388;2022-11-18T07:15:08;9.70;99.90
46400;DHT22;32104;50.838;4.388;2022-11-18T07:17:34;9.80;99.90
46400;DHT22;32104;50.838;4.388;2022-11-18T07:20:00;9.80;99.90
46400;DHT22;32104;50.838;4.388;2022-11-18T07:22:25;9.80;99.90
46400;DHT22;32104;50.838;4.388;2022-11-18T07:24:51;9.90;99.90
46400;DHT22;32104;50.838;4.388;2022-11-18T07:27:16;9.80;99.90
46400;DHT22;32104;50.838;4.388;2022-11-18T07:29:42;9.90;99.90
46400;DHT22;32104;50.838;4.388;2022-11-18T07:32:07;10.00;99.90
46400;DHT22;32104;50.838;4.388;2022-11-18T07:34:33;10.10;99.90
46400;DHT22;32104;50.838;4.388;2022-11-18T07:36:59;10.10;99.90
46400;DHT22;32104;50.838;4.388;2022-11-18T07:39:25;10.10;99.90
46400;DHT22;32104;50.838;4.388;2022-11-18T07:41:51;10.10;99.90
46400;DHT22;32104;50.838;4.388;2022-11-18T07:44:18;10.10;99.90
46400;DHT22;32104;50.838;4.388;2022-11-18T07:46:48;10.10;99.90
46400;DHT22;32104;50.838;4.388;2022-11-18T07:49:14;10.10;99.90
46400;DHT22;32104;50.838;4.388;2022-11-18T07:51:39;10.10;99.90
46400;DHT22;32104;50.838;4.388;2022-11-18T07:54:09;10.20;99.90
46400;DHT22;32104;50.838;4.388;2022-11-18T07:56:35;10.20;99.90
46400;DHT22;32104;50.838;4.388;2022-11-18T07:59:00;10.20;99.90
46400;DHT22;32104;50.838;4.388;2022-11-18T08:01:26;10.20;99.90
46400;DHT22;32104;50.838;4.388;2022-11-18T08:03:57;10.30;99.90
46400;DHT22;32104;50.838;4.388;2022-11-18T08:06:30;10.40;99.90
46400;DHT22;32104;50.838;4.388;2022-11-18T08:08:56;10.40;99.90
46400;DHT22;32104;50.838;4.388;2022-11-18T08:11:22;10.50;99.90
46400;DHT22;32104;50.838;4.388;2022-11-18T08:13:47;10.40;99.90
46400;DHT22;32104;50.838;4.388;2022-11-18T08:16:17;10.40;99.90
46400;DHT22;32104;50.838;4.388;2022-11-18T08:18:44;10.40;99.90
46400;DHT22;32104;50.838;4.388;2022-11-18T08:21:10;10.40;99.90
46400;DHT22;32104;50.838;4.388;2022-11-18T08:23:36;10.30;99.90
46400;DHT22;32104;50.838;4.388;2022-11-18T08:26:12;10.30;99.90
46400;DHT22;32104;50.838;4.388;2022-11-18T08:28:39;10.30;99.90
46400;DHT22;32104;50.838;4.388;2022-11-18T08:31:09;10.40;99.90
46400;DHT22;32104;50.838;4.388;2022-11-18T08:33:34;10.40;99.90
46400;DHT22;32104;50.838;4.388;2022-11-18T08:36:06;10.40;99.90
46400;DHT22;32104;50.838;4.388;2022-11-18T08:38:32;10.40;99.90
46400;DHT22;32104;50.838;4.388;2022-11-18T08:40:58;10.50;99.90
46400;DHT22;32104;50.838;4.388;2022-11-18T08:43:23;10.50;99.90
46400;DHT22;32104;50.838;4.388;2022-11-18T08:45:50;10.50;99.90
46400;DHT22;32104;50.838;4.388;2022-11-18T08:48:17;10.50;99.90
46400;DHT22;32104;50.838;4.388;2022-11-18T08:50:42;10.40;99.90
46400;DHT22;32104;50.838;4.388;2022-11-18T08:53:10;10.50;99.90
46400;DHT22;32104;50.838;4.388;2022-11-18T08:55:36;10.50;99.90
46400;DHT22;32104;50.838;4.388;2022-11-18T08:58:01;10.50;99.90
46400;DHT22;32104;50.838;4.388;2022-11-18T09:00:27;10.50;99.90
46400;DHT22;32104;50.838;4.388;2022-11-18T09:02:52;10.50;99.90
46400;DHT22;32104;50.838;4.388;2022-11-18T09:05:18;10.60;99.90
46400;DHT22;32104;50.838;4.388;2022-11-18T09:07:44;10.80;99.90
46400;DHT22;32104;50.838;4.388;2022-11-18T09:10:10;10.90;99.90
46400;DHT22;32104;50.838;4.388;2022-11-18T09:12:35;11.10;99.90
46400;DHT22;32104;50.838;4.388;2022-11-18T09:15:01;11.10;99.90
46400;DHT22;32104;50.838;4.388;2022-11-18T09:17:26;11.20;99.90
46400;DHT22;32104;50.838;4.388;2022-11-18T09:19:52;11.20;99.90
46400;DHT22;32104;50.838;4.388;2022-11-18T09:22:17;11.10;99.90
46400;DHT22;32104;50.838;4.388;2022-11-18T09:24:43;11.10;99.90
46400;DHT22;32104;50.838;4.388;2022-11-18T09:27:09;11.20;99.90
46400;DHT22;32104;50.838;4.388;2022-11-18T09:29:35;11.20;99.90
46400;DHT22;32104;50.838;4.388;2022-11-18T09:32:00;11.30;99.90
46400;DHT22;32104;50.838;4.388;2022-11-18T09:34:27;11.20;99.90
46400;DHT22;32104;50.838;4.388;2022-11-18T09:36:53;11.20;99.90
46400;DHT22;32104;50.838;4.388;2022-11-18T09:39:23;11.30;99.90
46400;DHT22;32104;50.838;4.388;2022-11-18T09:47:24;11.30;99.90
46400;DHT22;32104;50.838;4.388;2022-11-18T09:49:50;11.20;99.90
46400;DHT22;32104;50.838;4.388;2022-11-18T09:54:43;11.10;99.90
46400;DHT22;32104;50.838;4.388;2022-11-18T09:57:13;11.20;99.90
46400;DHT22;32104;50.838;4.388;2022-11-18T09:59:39;11.30;99.90
46400;DHT22;32104;50.838;4.388;2022-11-18T10:04:50;11.30;99.90
46400;DHT22;32104;50.838;4.388;2022-11-18T10:07:19;11.30;99.90
46400;DHT22;32104;50.838;4.388;2022-11-18T10:09:47;11.40;99.90
46400;DHT22;32104;50.838;4.388;2022-11-18T10:17:30;11.60;99.90
46400;DHT22;32104;50.838;4.388;2022-11-18T10:24:55;11.80;99.90
46400;DHT22;32104;50.838;4.388;2022-11-18T10:27:22;12.00;99.90
46400;DHT22;32104;50.838;4.388;2022-11-18T10:29:51;12.00;99.90
46400;DHT22;32104;50.838;4.388;2022-11-18T10:32:18;12.00;99.90
46400;DHT22;32104;50.838;4.388;2022-11-18T10:34:51;12.00;99.90
46400;DHT22;32104;50.838;4.388;2022-11-18T10:37:35;12.00;99.90
46400;DHT22;32104;50.838;4.388;2022-11-18T10:40:04;12.00;99.90
46400;DHT22;32104;50.838;4.388;2022-11-18T10:42:45;12.00;99.90
46400;DHT22;32104;50.838;4.388;2022-11-18T10:45:29;12.00;99.90
46400;DHT22;32104;50.838;4.388;2022-11-18T10:50:49;12.00;99.90
46400;DHT22;32104;50.838;4.388;2022-11-18T10:53:32;12.00;99.90
46400;DHT22;32104;50.838;4.388;2022-11-18T10:55:58;12.00;99.90
46400;DHT22;32104;50.838;4.388;2022-11-18T10:58:24;11.90;99.90
46400;DHT22;32104;50.838;4.388;2022-11-18T11:00:51;12.00;99.90
46400;DHT22;32104;50.838;4.388;2022-11-18T11:03:26;12.00;99.90
46400;DHT22;32104;50.838;4.388;2022-11-18T11:08:48;12.00;99.90
46400;DHT22;32104;50.838;4.388;2022-11-18T11:11:31;12.00;99.90
46400;DHT22;32104;50.838;4.388;2022-11-18T11:14:10;11.90;99.90
46400;DHT22;32104;50.838;4.388;2022-11-18T11:16:40;11.80;99.90
46400;DHT22;32104;50.838;4.388;2022-11-18T11:19:08;11.90;99.90
46400;DHT22;32104;50.838;4.388;2022-11-18T11:21:35;11.90;99.90
46400;DHT22;32104;50.838;4.388;2022-11-18T11:24:01;12.00;99.90
46400;DHT22;32104;50.838;4.388;2022-11-18T11:29:23;12.10;99.90
46400;DHT22;32104;50.838;4.388;2022-11-18T11:34:45;12.20;99.90
46400;DHT22;32104;50.838;4.388;2022-11-18T11:37:20;12.20;99.90
46400;DHT22;32104;50.838;4.388;2022-11-18T11:40:11;12.20;99.90
46400;DHT22;32104;50.838;4.388;2022-11-18T11:45:21;12.20;99.90
46400;DHT22;32104;50.838;4.388;2022-11-18T11:50:47;12.20;99.90
46400;DHT22;32104;50.838;4.388;2022-11-18T11:56:22;12.40;99.90
46400;DHT22;32104;50.838;4.388;2022-11-18T12:06:29;12.40;99.90
46400;DHT22;32104;50.838;4.388;2022-11-18T12:19:18;12.60;99.90
46400;DHT22;32104;50.838;4.388;2022-11-18T12:26:44;12.70;99.90
46400;DHT22;32104;50.838;4.388;2022-11-18T12:37:41;12.30;99.90
46400;DHT22;32104;50.838;4.388;2022-11-18T12:40:07;12.30;99.90
46400;DHT22;32104;50.838;4.388;2022-11-18T12:42:45;12.40;99.90
46400;DHT22;32104;50.838;4.388;2022-11-18T12:48:33;12.50;99.90
46400;DHT22;32104;50.838;4.388;2022-11-18T12:51:00;12.50;99.90
46400;DHT22;32104;50.838;4.388;2022-11-18T12:53:31;12.50;99.90
46400;DHT22;32104;50.838;4.388;2022-11-18T12:55:57;12.50;99.90
46400;DHT22;32104;50.838;4.388;2022-11-18T12:58:23;12.60;99.90
46400;DHT22;32104;50.838;4.388;2022-11-18T13:00:49;12.60;99.90
46400;DHT22;32104;50.838;4.388;2022-11-18T13:03:22;12.60;99.90
46400;DHT22;32104;50.838;4.388;2022-11-18T13:05:49;12.60;99.90
46400;DHT22;32104;50.838;4.388;2022-11-18T13:08:15;12.50;99.90
46400;DHT22;32104;50.838;4.388;2022-11-18T13:13:15;12.40;99.90
46400;DHT22;32104;50.838;4.388;2022-11-18T13:15:43;12.60;99.90
46400;DHT22;32104;50.838;4.388;2022-11-18T13:18:28;12.60;99.90
46400;DHT22;32104;50.838;4.388;2022-11-18T13:21:02;12.70;99.90
46400;DHT22;32104;50.838;4.388;2022-11-18T13:23:56;12.70;99.90
46400;DHT22;32104;50.838;4.388;2022-11-18T13:26:27;12.80;99.90
46400;DHT22;32104;50.838;4.388;2022-11-18T13:31:47;12.80;99.90
46400;DHT22;32104;50.838;4.388;2022-11-18T13:34:20;12.90;99.90
46400;DHT22;32104;50.838;4.388;2022-11-18T13:36:47;12.90;99.90
46400;DHT22;32104;50.838;4.388;2022-11-18T13:39:17;12.80;99.90
46400;DHT22;32104;50.838;4.388;2022-11-18T13:41:44;12.80;99.90
46400;DHT22;32104;50.838;4.388;2022-11-18T13:44:10;12.80;99.90
46400;DHT22;32104;50.838;4.388;2022-11-18T13:46:37;12.70;99.90
46400;DHT22;32104;50.838;4.388;2022-11-18T13:49:04;12.80;99.90
46400;DHT22;32104;50.838;4.388;2022-11-18T13:51:30;12.90;99.90
46400;DHT22;32104;50.838;4.388;2022-11-18T13:53:56;12.80;99.90
46400;DHT22;32104;50.838;4.388;2022-11-18T13:56:25;12.80;99.90
46400;DHT22;32104;50.838;4.388;2022-11-18T13:58:53;12.90;99.90
46400;DHT22;32104;50.838;4.388;2022-11-18T14:01:21;12.90;99.90
46400;DHT22;32104;50.838;4.388;2022-11-18T14:06:24;12.90;99.90
46400;DHT22;32104;50.838;4.388;2022-11-18T14:08:50;13.00;99.90
46400;DHT22;32104;50.838;4.388;2022-11-18T14:11:33;13.10;99.90
46400;DHT22;32104;50.838;4.388;2022-11-18T14:13:59;13.10;99.90
46400;DHT22;32104;50.838;4.388;2022-11-18T14:18:56;13.30;99.90
46400;DHT22;32104;50.838;4.388;2022-11-18T14:21:35;13.20;99.90
46400;DHT22;32104;50.838;4.388;2022-11-18T14:24:02;13.10;99.90
46400;DHT22;32104;50.838;4.388;2022-11-18T14:26:30;13.20;99.90
46400;DHT22;32104;50.838;4.388;2022-11-18T14:28:59;13.10;99.90
46400;DHT22;32104;50.838;4.388;2022-11-18T14:31:26;13.10;99.90
46400;DHT22;32104;50.838;4.388;2022-11-18T14:34:11;13.00;99.90
46400;DHT22;32104;50.838;4.388;2022-11-18T14:36:40;13.00;99.90
46400;DHT22;32104;50.838;4.388;2022-11-18T14:39:16;13.10;99.90
46400;DHT22;32104;50.838;4.388;2022-11-18T14:41:44;13.00;99.90
46400;DHT22;32104;50.838;4.388;2022-11-18T14:44:13;12.90;99.90
46400;DHT22;32104;50.838;4.388;2022-11-18T14:46:40;13.00;99.90
46400;DHT22;32104;50.838;4.388;2022-11-18T14:49:09;13.00;99.90
46400;DHT22;32104;50.838;4.388;2022-11-18T14:51:36;13.00;99.90
46400;DHT22;32104;50.838;4.388;2022-11-18T14:54:02;12.90;99.90
46400;DHT22;32104;50.838;4.388;2022-11-18T14:56:29;13.10;99.90
46400;DHT22;32104;50.838;4.388;2022-11-18T14:58:55;13.10;99.90
46400;DHT22;32104;50.838;4.388;2022-11-18T15:01:21;13.00;99.90
46400;DHT22;32104;50.838;4.388;2022-11-18T15:03:49;13.00;99.90
46400;DHT22;32104;50.838;4.388;2022-11-18T15:06:15;13.00;99.90
46400;DHT22;32104;50.838;4.388;2022-11-18T15:08:42;13.00;99.90
46400;DHT22;32104;50.838;4.388;2022-11-18T15:11:08;13.00;99.90
46400;DHT22;32104;50.838;4.388;2022-11-18T15:13:37;13.00;99.90
46400;DHT22;32104;50.838;4.388;2022-11-18T15:18:35;12.90;99.90
46400;DHT22;32104;50.838;4.388;2022-11-18T15:24:22;12.80;99.90
46400;DHT22;32104;50.838;4.388;2022-11-18T15:26:47;12.90;99.90
46400;DHT22;32104;50.838;4.388;2022-11-18T15:29:18;13.00;99.90
46400;DHT22;32104;50.838;4.388;2022-11-18T15:31:44;13.00;99.90
46400;DHT22;32104;50.838;4.388;2022-11-18T15:34:09;12.80;99.90
46400;DHT22;32104;50.838;4.388;2022-11-18T15:36:35;12.70;99.90
46400;DHT22;32104;50.838;4.388;2022-11-18T15:39:00;12.70;99.90
46400;DHT22;32104;50.838;4.388;2022-11-18T15:41:27;12.70;99.90
46400;DHT22;32104;50.838;4.388;2022-11-18T15:43:54;12.70;99.90
46400;DHT22;32104;50.838;4.388;2022-11-18T15:46:21;12.70;99.90
46400;DHT22;32104;50.838;4.388;2022-11-18T15:48:47;12.70;99.90
46400;DHT22;32104;50.838;4.388;2022-11-18T15:51:12;12.70;99.90
46400;DHT22;32104;50.838;4.388;2022-11-18T15:53:38;12.70;99.90
46400;DHT22;32104;50.838;4.388;2022-11-18T15:58:55;12.70;99.90
46400;DHT22;32104;50.838;4.388;2022-11-18T16:01:21;12.70;99.90
46400;DHT22;32104;50.838;4.388;2022-11-18T16:03:47;12.60;99.90
46400;DHT22;32104;50.838;4.388;2022-11-18T16:06:13;12.50;99.90
46400;DHT22;32104;50.838;4.388;2022-11-18T16:08:38;12.40;99.90
46400;DHT22;32104;50.838;4.388;2022-11-18T16:11:04;12.50;99.90
46400;DHT22;32104;50.838;4.388;2022-11-18T16:13:48;12.50;99.90
46400;DHT22;32104;50.838;4.388;2022-11-18T16:16:18;12.60;99.90
46400;DHT22;32104;50.838;4.388;2022-11-18T16:18:44;12.50;99.90
46400;DHT22;32104;50.838;4.388;2022-11-18T16:21:09;12.50;99.90
46400;DHT22;32104;50.838;4.388;2022-11-18T16:23:35;12.40;99.90
46400;DHT22;32104;50.838;4.388;2022-11-18T16:26:01;12.30;99.90
46400;DHT22;32104;50.838;4.388;2022-11-18T16:28:31;12.20;99.90
46400;DHT22;32104;50.838;4.388;2022-11-18T16:30:59;12.20;99.90
46400;DHT22;32104;50.838;4.388;2022-11-18T16:33:44;12.10;99.90
46400;DHT22;32104;50.838;4.388;2022-11-18T16:36:09;12.10;99.90
46400;DHT22;32104;50.838;4.388;2022-11-18T16:38:43;12.10;99.90
46400;DHT22;32104;50.838;4.388;2022-11-18T16:41:08;12.00;99.90
46400;DHT22;32104;50.838;4.388;2022-11-18T16:43:52;12.20;99.90
46400;DHT22;32104;50.838;4.388;2022-11-18T16:46:18;12.10;99.90
46400;DHT22;32104;50.838;4.388;2022-11-18T16:48:44;12.10;99.90
46400;DHT22;32104;50.838;4.388;2022-11-18T16:51:19;12.10;99.90
46400;DHT22;32104;50.838;4.388;2022-11-18T16:53:49;12.10;99.90
46400;DHT22;32104;50.838;4.388;2022-11-18T16:56:16;12.00;99.90
46400;DHT22;32104;50.838;4.388;2022-11-18T16:58:43;12.00;99.90
46400;DHT22;32104;50.838;4.388;2022-11-18T17:01:09;11.90;99.90
46400;DHT22;32104;50.838;4.388;2022-11-18T17:03:35;12.10;99.90
46400;DHT22;32104;50.838;4.388;2022-11-18T17:06:01;12.10;99.90
46400;DHT22;32104;50.838;4.388;2022-11-18T17:08:27;12.20;99.90
46400;DHT22;32104;50.838;4.388;2022-11-18T17:10:52;12.20;99.90
46400;DHT22;32104;50.838;4.388;2022-11-18T17:13:18;12.10;99.90
46400;DHT22;32104;50.838;4.388;2022-11-18T17:15:43;12.00;99.90
46400;DHT22;32104;50.838;4.388;2022-11-18T17:18:09;12.10;99.90
46400;DHT22;32104;50.838;4.388;2022-11-18T17:20:35;12.00;99.90
46400;DHT22;32104;50.838;4.388;2022-11-18T17:23:03;11.80;99.90
46400;DHT22;32104;50.838;4.388;2022-11-18T17:25:29;11.90;99.90
46400;DHT22;32104;50.838;4.388;2022-11-18T17:27:54;11.90;99.90
46400;DHT22;32104;50.838;4.388;2022-11-18T17:30:20;11.90;99.90
46400;DHT22;32104;50.838;4.388;2022-11-18T17:32:45;11.70;99.90
46400;DHT22;32104;50.838;4.388;2022-11-18T17:35:11;11.70;99.90
46400;DHT22;32104;50.838;4.388;2022-11-18T17:37:37;11.70;99.90
46400;DHT22;32104;50.838;4.388;2022-11-18T17:40:03;11.80;99.90
46400;DHT22;32104;50.838;4.388;2022-11-18T17:42:30;11.70;99.90
46400;DHT22;32104;50.838;4.388;2022-11-18T17:44:55;11.60;99.90
46400;DHT22;32104;50.838;4.388;2022-11-18T17:47:24;11.60;99.90